• Join FlightAware (Why Join?)
  • Login
  • US Flag 
04:29AM EDT


 

Airport Tracker/Info


-or-


 

Live Flight TrackerFlight Track Log ✈ JBU56 ✈ 24-Nov-2013 ✈ KIAD - KBOS

Flight Track Log - Related Links

Times and Time Zones

All times are in EST time to prevent confusion due to time zone crossing. See the JBU56 flight status page for this flight to view local times or setup timezone preferences in your user account.

Time Position Orientation Groundspeed Altitude Reporting Facility
EST Latitude Longitude Course Direction KTS MPH feet Rate Location/Type
09:58AM 38.9667 -77.5000 90° East 165 190 2,600  Level Potomac TRACON
09:59AM 39.0333 -77.5000 360° North 213 245 6,000 3,300 Climbing Potomac TRACON
10:00AM 39.1975 -77.0299 74° East  Level Estimated
10:00AM 39.1000 -77.5000 360° North 232 267 9,600  Level Potomac TRACON
10:01AM 39.2598 -76.9219 90° East  Level Estimated
10:01AM 39.1333 -77.4167 63° Northeast 321 369 10,100  Level Potomac TRACON
10:02AM 39.3220 -76.8137 76° East  Level Estimated
10:02AM 39.1500 -77.3000 80° East 356 410 10,100  Level Potomac TRACON
10:03AM 39.3841 -76.7054 90° East  Level Estimated
10:04AM 39.1003 -77.0681 105° East 367 422 12,700  Level Washington Center
10:05AM 39.0872 -76.9286 97° East 372 428 15,300 2,400 Climbing Washington Center
10:06AM 39.0992 -76.7844 84° East 384 442 17,600 1,980 Climbing Washington Center
10:07AM 39.1153 -76.6322 82° East 408 470 19,200 1,680 Climbing Washington Center
10:08AM 39.1289 -76.4692 84° East 437 503 21,000 1,680 Climbing Washington Center
10:09AM 39.1425 -76.2981 84° East 463 533 22,700 1,080 Climbing Washington Center
10:10AM 39.1644 -76.1217 81° East 481 554 23,200 900 Climbing Washington Center
10:11AM 39.1881 -75.9478 80° East 493 567 24,500 840 Climbing Washington Center
10:12AM 39.2569 -75.7953 60° Northeast 473 544 25,000 600 Climbing Washington Center
10:13AM 39.3508 -75.6775 44° Northeast 462 532 25,800 1,020 Climbing Washington Center
10:14AM 39.4847 -75.5053 45° Northeast 485 558 27,600 1,200 Climbing New York Center
10:15AM 39.5836 -75.3772 45° Northeast 490 564 28,900 1,500 Climbing New York Center
10:16AM 39.6761 -75.2483 47° Northeast 490 564 30,600 1,020 Climbing New York Center
10:17AM 39.7800 -75.0928 49° Northeast 502 578 31,000 180 Climbing New York Center
10:18AM 39.8747 -74.9553 48° Northeast 507 583 31,000  Level New York Center
10:19AM 39.9667 -74.8308 46° Northeast 518 596 31,000  Level New York Center
10:20AM 40.0508 -74.6839 53° Northeast 518 596 31,000  Level New York Center
10:21AM 40.1469 -74.5453 48° Northeast 518 596 31,000  Level New York Center
10:22AM 40.2500 -74.3850 50° Northeast 518 596 31,000  Level New York Center
10:24AM 40.4156 -74.1333 49° Northeast 522 601 31,000  Level Boston Center
10:25AM 40.5231 -73.9672 50° Northeast 519 597 31,000  Level Boston Center
10:26AM 40.6164 -73.8242 49° Northeast 518 596 31,000 -120 Level Boston Center
10:27AM 40.7086 -73.6797 50° Northeast 515 593 30,800 -1,380 Descending Boston Center
10:28AM 40.8000 -73.5375 50° Northeast 510 587 28,200 -1,920 Descending Boston Center
10:29AM 40.8858 -73.4014 50° Northeast 488 562 27,000 -600 Descending Boston Center
10:30AM 40.9656 -73.2867 47° Northeast 471 542 27,000 -600 Level Boston Center
10:31AM 41.0531 -73.1553 49° Northeast 474 545 25,900 -1,320 Descending Boston Center
10:32AM 41.1386 -73.0278 48° Northeast 469 540 24,400 -1,440 Descending Boston Center
10:33AM 41.2161 -72.9014 51° Northeast 450 518 23,000 -720 Descending Boston Center
10:34AM 41.2758 -72.7339 65° Northeast 441 507 23,000  Level Boston Center
10:35AM 41.3272 -72.5867 65° Northeast 438 504 23,000  Level Boston Center
10:36AM 41.3783 -72.4397 65° Northeast 436 502 23,000  Level Boston Center
10:37AM 41.4297 -72.2933 65° Northeast 436 502 23,000  Level Boston Center
10:39AM 41.4806 -72.1475 65° Northeast 435 501 23,000  Level Boston Center
10:40AM 41.5344 -72.0036 63° Northeast 433 498 23,000 -660 Level Boston Center
10:41AM 41.5872 -71.8592 64° Northeast 432 497 21,700 -1,740 Descending Boston Center
10:42AM 41.6383 -71.7206 64° Northeast 423 487 19,600 -2,040 Descending Boston Center
10:43AM 41.6944 -71.5972 59° Northeast 406 467 17,700 -1,980 Descending Boston Center
10:44AM 41.7364 -71.4547 68° East 362 417 15,700 -1,860 Descending Boston Center
10:45AM 41.7783 -71.3367 64° Northeast 356 410 14,000 -1,740 Descending Boston Center
10:46AM 41.8222 -71.2172 64° Northeast 338 389 12,200 -1,500 Descending Boston Center
10:47AM 41.8642 -71.1114 62° Northeast 324 373 10,900 -1,140 Descending Boston Center
10:47AM 41.9000 -71.0667 43° Northeast 277 319 10,500 -1,440 Descending KA90
10:48AM 41.9500 -71.0000 45° Northeast 262 302 8,800 -1,680 Descending KA90
10:49AM 42.0000 -70.9500 37° Northeast 239 275 7,200 -1,560 Descending KA90
10:50AM 42.0667 -70.9167 20° North 234 269 5,700 -1,500 Descending KA90
10:51AM 42.1333 -70.8833 20° North 237 273 4,000 -900 Descending KA90
10:52AM 42.2000 -70.8667 10° North 242 278 3,900 -600 Descending KA90
10:53AM 42.2500 -70.8500 14° North 179 206 2,900 -960 Descending KA90
10:54AM 42.3000 -70.9167 315° West 181 208 1,800 -840 Descending KA90
10:55AM 42.3167 -70.9500 304° West 110 127 1,100 -720 Descending KA90
10:57AM 42.3500 -70.9833 324° Northwest 116 133 400 -660 Descending KA90